Weather observations for the past three days for
Hickory, Hickory Regional Airport
Imperial (Metric)
Date Time (edt) Wind (mph) Vis. (mi.) Weather Sky Cond. Temperature (ºF) Relative Humidity Wind Chill (°F) Heat Index (°F) Pressure Precipitation (in)
Air Dwpt 6 hour altimeter (in) sea level (mb) 1 hr 3 hr 6 hr
Max. Min.
22 15:52 S 8 10.00 A Few Clouds FEW060 89.6 68 49% 93 30.07 0.0
22 13:50 Vrbl 5 10.00 A Few Clouds FEW047 87.8 66.2 49% 90 30.12 0.0
22 12:50 Vrbl 3 10.00 A Few Clouds FEW050 87.8 66.2 49% 90 30.15 0.0
22 11:47 Calm 10.00 Fair CLR 86 64.4 49% 87 30.16 0.0
22 10:53 Vrbl 5 10.00 Fair CLR 84.2 66.2 55% 87 30.17 0.0
22 09:53 Vrbl 5 10.00 Fair CLR 80.6 66.2 62% 83 30.18 0.0
22 08:53 Calm 10.00 Fair CLR 75.2 66.2 74% 77 30.18 0.0
22 07:48 Calm 10.00 Fair CLR 68 64.4 88% 30.18 0.0
22 06:47 Calm 10.00 Fair CLR 66.2 64.4 94% 30.18 0.0
21 19:52 Calm 10.00 Fair CLR 84.2 60.8 45% 84 30.17 0.0
21 18:52 Calm 10.00 Fair CLR 86 60.8 43% 86 30.17 0.0
21 17:52 Calm 10.00 Fair CLR 87.8 60.8 40% 88 30.18 0.0
21 16:52 Calm 10.00 Fair CLR 87.8 60.8 40% 88 30.19 0.0
21 15:47 Calm 10.00 Fair CLR 87.8 60.8 40% 88 30.21 0.0
21 14:52 Calm 10.00 Fair CLR 86 60.8 43% 86 30.23 0.0
21 13:52 E 3 10.00 Partly Cloudy SCT050 86 62.6 46% 87 30.05 0.0
21 12:53 Vrbl 5 10.00 Mostly Cloudy BKN046 84.2 62.6 48% 85 30.27 0.0
21 11:53 Calm 10.00 Fair CLR 82.4 62.6 51% 83 30.28 0.0
21 09:48 Calm 10.00 Fair CLR 75.2 64.4 69% 77 30.3 0.0
21 08:51 Calm 10.00 Fair CLR 73.4 64.4 74% 30.3 0.0
21 07:53 Calm 10.00 Fair CLR 69.8 64.4 83% 30.31 0.0
21 06:53 Calm 10.00 Fair CLR 0 0 0% 30.3 0.0
Date Time (edt) Wind (mph) Vis. (mi.) Weather Sky Cond. Air Dwpt Max. Min. Relative Humidity Wind Chill (°F) Heat Index (°F) altimeter (in) sea level (mb) 1 hr 3 hr 6 hr
6 hour
Temperature (ºF) Pressure Precipitation (in)